createdAt,value
2019-05-28T00:00:09.461Z,68.55
2019-05-28T00:02:36.241Z,67.67
2019-05-28T00:05:03.372Z,68.58
2019-05-28T00:07:30.071Z,68.59
2019-05-28T00:09:56.853Z,68.83
2019-05-28T00:12:24.083Z,69.09
2019-05-28T00:14:50.796Z,69.44
2019-05-28T00:17:17.574Z,68.99
2019-05-28T00:19:44.286Z,68.55
2019-05-28T00:22:10.931Z,68.62
2019-05-28T00:24:37.900Z,69.07
2019-05-28T00:27:04.657Z,69.15
2019-05-28T00:29:31.458Z,69.11
2019-05-28T00:31:58.241Z,69.29
2019-05-28T00:34:24.830Z,68.54
2019-05-28T00:36:51.600Z,69.04
2019-05-28T00:39:18.280Z,69.29
2019-05-28T00:41:45.081Z,69.36
2019-05-28T00:44:11.871Z,69.68
2019-05-28T00:46:38.680Z,69.62
2019-05-28T00:49:05.461Z,69.49
2019-05-28T00:51:54.275Z,70.04
2019-05-28T00:54:21.046Z,69.60
2019-05-28T00:56:49.083Z,69.50
2019-05-28T00:59:16.878Z,69.83
2019-05-28T01:01:43.590Z,69.75
2019-05-28T01:04:10.239Z,70.40
2019-05-28T01:06:36.940Z,71.02
2019-05-28T01:09:05.880Z,71.24
2019-05-28T01:11:32.559Z,71.83
2019-05-28T01:13:59.257Z,72.15
2019-05-28T01:16:26.208Z,72.40
2019-05-28T01:18:52.873Z,71.93
2019-05-28T01:21:19.961Z,72.44
2019-05-28T01:23:47.031Z,72.69
2019-05-28T01:26:13.707Z,73.60
2019-05-28T01:28:40.291Z,73.65
2019-05-28T01:31:06.879Z,73.76
2019-05-28T01:33:33.679Z,73.82
2019-05-28T01:36:00.375Z,72.88
2019-05-28T01:38:27.049Z,73.08
2019-05-28T01:40:53.662Z,72.77
2019-05-28T01:43:20.346Z,72.89
2019-05-28T01:45:47.135Z,72.43
2019-05-28T01:48:13.751Z,72.81
2019-05-28T01:50:40.519Z,72.41
2019-05-28T01:53:07.212Z,71.58
2019-05-28T01:55:33.918Z,72.13
2019-05-28T01:58:00.494Z,72.31
2019-05-28T02:00:27.286Z,72.69
2019-05-28T02:02:54.135Z,73.19
2019-05-28T02:05:21.342Z,73.37
2019-05-28T02:07:48.011Z,73.71
2019-05-28T02:10:15.104Z,73.58
2019-05-28T02:12:41.795Z,74.06
2019-05-28T02:15:10.683Z,74.49
2019-05-28T02:17:37.488Z,73.50
2019-05-28T02:20:05.091Z,73.57
2019-05-28T02:22:31.867Z,73.61
2019-05-28T02:24:58.470Z,73.75
2019-05-28T02:27:25.149Z,74.02
2019-05-28T02:29:52.239Z,74.04
2019-05-28T02:32:18.916Z,74.37
2019-05-28T02:34:45.690Z,74.78
2019-05-28T02:37:12.379Z,75.51
2019-05-28T02:39:39.142Z,76.25
2019-05-28T02:42:05.941Z,76.99
2019-05-28T02:44:32.607Z,77.75
2019-05-28T02:46:59.432Z,78.32
2019-05-28T02:49:25.974Z,78.67
2019-05-28T02:51:53.234Z,78.18
2019-05-28T02:54:20.100Z,78.46
2019-05-28T02:56:48.519Z,78.62
2019-05-28T02:59:16.490Z,78.79
2019-05-28T03:01:44.965Z,78.82
2019-05-28T03:04:13.802Z,79.15
2019-05-28T03:06:42.440Z,79.32
2019-05-28T03:09:09.100Z,79.76
2019-05-28T03:11:35.806Z,80.58
2019-05-28T03:14:02.572Z,80.63
2019-05-28T03:16:32.973Z,80.71
2019-05-28T03:18:59.957Z,80.92
2019-05-28T03:21:28.363Z,81.24
2019-05-28T03:23:56.856Z,81.36
2019-05-28T03:26:23.887Z,81.22
2019-05-28T03:28:50.696Z,81.30
2019-05-28T03:31:17.505Z,81.22
2019-05-28T03:33:44.263Z,81.33
2019-05-28T03:36:12.995Z,81.61
2019-05-28T03:38:42.573Z,81.74
2019-05-28T03:41:09.339Z,81.65
2019-05-28T03:43:36.118Z,81.55
2019-05-28T03:46:03.049Z,81.37
2019-05-28T03:48:29.737Z,80.43
2019-05-28T03:50:56.306Z,80.28
2019-05-28T03:53:23.046Z,79.78
2019-05-28T03:55:49.822Z,79.87
2019-05-28T03:58:16.665Z,79.88
2019-05-28T04:00:43.341Z,79.49
2019-05-28T04:03:10.122Z,79.04
2019-05-28T04:05:37.086Z,78.92
2019-05-28T04:08:04.350Z,78.93
2019-05-28T04:10:31.375Z,78.63
2019-05-28T04:12:58.155Z,77.95
2019-05-28T04:15:24.829Z,77.57
2019-05-28T04:17:51.753Z,77.23
2019-05-28T04:20:18.498Z,76.93
2019-05-28T04:22:45.196Z,76.50
2019-05-28T04:25:11.968Z,76.37
2019-05-28T04:27:38.758Z,76.76
2019-05-28T04:30:05.729Z,76.75
2019-05-28T04:32:40.560Z,77.09
2019-05-28T04:35:01.355Z,77.27
2019-05-28T04:37:28.148Z,77.79
2019-05-28T04:39:54.918Z,77.93
2019-05-28T04:42:22.077Z,78.02
2019-05-28T04:44:48.747Z,78.31
2019-05-28T04:47:15.478Z,77.88
2019-05-28T04:49:42.264Z,77.68
2019-05-28T04:52:08.957Z,77.31
2019-05-28T04:54:35.693Z,77.37
2019-05-28T04:57:03.217Z,76.96
2019-05-28T04:59:29.834Z,76.42
2019-05-28T05:01:56.507Z,75.50
2019-05-28T05:04:23.302Z,75.00
2019-05-28T05:06:49.871Z,74.16
2019-05-28T05:09:16.556Z,73.87
2019-05-28T05:11:43.345Z,72.92
2019-05-28T05:14:09.928Z,73.03
2019-05-28T05:16:36.525Z,72.87
2019-05-28T05:19:03.328Z,72.55
2019-05-28T05:21:30.096Z,73.08
2019-05-28T05:23:56.783Z,72.50
2019-05-28T05:26:23.482Z,71.37
2019-05-28T05:28:50.147Z,70.71
2019-05-28T05:31:17.057Z,70.60
2019-05-28T05:33:43.782Z,69.80
2019-05-28T05:36:10.532Z,69.60
2019-05-28T05:38:37.360Z,69.71
2019-05-28T05:41:04.135Z,70.21
2019-05-28T05:43:30.850Z,69.44
2019-05-28T05:45:57.409Z,67.77
2019-05-28T05:48:24.228Z,66.84
2019-05-28T05:50:51.020Z,66.10
2019-05-28T05:53:17.824Z,67.22
2019-05-28T05:55:44.412Z,66.54
2019-05-28T05:58:11.151Z,64.46
2019-05-28T06:00:37.847Z,62.40
2019-05-28T06:03:04.556Z,60.51
2019-05-28T06:05:31.339Z,58.76
2019-05-28T06:07:58.075Z,57.62
2019-05-28T06:10:24.858Z,56.89
2019-05-28T06:12:51.526Z,56.68
2019-05-28T06:15:18.309Z,55.59
2019-05-28T06:17:44.878Z,54.40
2019-05-28T06:20:12.204Z,54.11
2019-05-28T06:22:38.859Z,53.39
2019-05-28T06:25:06.347Z,51.95
2019-05-28T06:27:33.106Z,51.81
2019-05-28T06:30:00.207Z,51.87
2019-05-28T06:32:26.913Z,51.07
2019-05-28T06:34:53.707Z,52.01
2019-05-28T06:37:20.499Z,51.69
2019-05-28T06:39:47.561Z,50.28
2019-05-28T06:42:14.322Z,51.02
2019-05-28T06:44:41.145Z,50.73
2019-05-28T06:47:07.931Z,48.85
2019-05-28T06:49:34.525Z,48.08
2019-05-28T06:52:01.397Z,48.60
2019-05-28T06:54:28.157Z,49.22
2019-05-28T06:56:54.998Z,47.80
2019-05-28T06:59:21.688Z,47.43
2019-05-28T07:01:48.442Z,47.87
2019-05-28T07:04:29.765Z,48.85
2019-05-28T07:06:43.590Z,47.44
2019-05-28T07:09:10.803Z,47.24
2019-05-28T07:11:37.568Z,47.96
2019-05-28T07:14:04.397Z,48.48
2019-05-28T07:16:31.196Z,50.31
2019-05-28T07:18:57.876Z,50.45
2019-05-28T07:21:24.571Z,48.00
2019-05-28T07:23:51.247Z,44.24
2019-05-28T07:26:17.898Z,42.42
2019-05-28T07:28:44.568Z,44.90
2019-05-28T07:31:11.243Z,42.83
2019-05-28T07:33:38.014Z,39.89
2019-05-28T07:36:04.698Z,36.84
2019-05-28T07:38:31.363Z,40.40
2019-05-28T07:40:58.545Z,38.50
2019-05-28T07:43:25.216Z,37.70
2019-05-28T07:45:52.062Z,35.07
2019-05-28T07:48:18.770Z,33.61
2019-05-28T07:50:45.457Z,31.54
2019-05-28T07:53:12.039Z,30.95
2019-05-28T07:55:38.837Z,29.29
2019-05-28T07:58:06.048Z,27.31
2019-05-28T08:00:37.810Z,24.85
2019-05-28T08:03:05.410Z,24.47
2019-05-28T08:05:32.495Z,28.37
2019-05-28T08:07:59.268Z,26.92
2019-05-28T08:10:29.286Z,25.86
2019-05-28T08:12:54.946Z,24.81
2019-05-28T08:15:22.161Z,23.79
2019-05-28T08:17:48.832Z,24.27
2019-05-28T08:20:18.556Z,25.80
2019-05-28T08:22:44.086Z,26.21
2019-05-28T08:25:27.538Z,27.16
2019-05-28T08:27:39.789Z,29.62
2019-05-28T08:30:07.604Z,34.19
2019-05-28T08:32:34.749Z,38.01
2019-05-28T08:35:05.302Z,39.13
2019-05-28T08:37:30.214Z,40.63
2019-05-28T08:39:57.158Z,41.71
2019-05-28T08:42:23.838Z,43.01
2019-05-28T08:44:50.418Z,45.53
2019-05-28T08:47:17.241Z,45.64
2019-05-28T08:49:44.084Z,44.16
2019-05-28T08:52:10.817Z,44.67
2019-05-28T08:54:37.489Z,44.86
2019-05-28T08:57:04.240Z,45.52
2019-05-28T08:59:30.991Z,46.91
2019-05-28T09:01:57.672Z,44.67
2019-05-28T09:04:24.466Z,44.07
2019-05-28T09:06:51.214Z,43.98
2019-05-28T09:09:17.873Z,43.27
2019-05-28T09:11:44.573Z,42.13
2019-05-28T09:14:11.244Z,41.69
2019-05-28T09:16:37.956Z,41.94
2019-05-28T09:19:04.753Z,40.92
2019-05-28T09:21:31.435Z,40.01
2019-05-28T09:23:58.105Z,39.99
2019-05-28T09:26:24.691Z,39.42
2019-05-28T09:28:51.493Z,39.80
2019-05-28T09:31:18.390Z,39.96
2019-05-28T09:33:45.506Z,39.66
2019-05-28T09:36:12.168Z,40.49
2019-05-28T09:38:39.311Z,41.60
2019-05-28T09:41:06.402Z,39.89
2019-05-28T09:43:33.050Z,39.40
2019-05-28T09:45:59.641Z,40.00
2019-05-28T09:48:26.331Z,40.71
2019-05-28T09:50:53.115Z,40.07
2019-05-28T09:53:19.784Z,39.90
2019-05-28T09:55:46.608Z,39.77
2019-05-28T09:58:13.174Z,37.65
2019-05-28T10:00:56.674Z,37.05
2019-05-28T10:03:08.824Z,36.00
2019-05-28T10:05:35.611Z,34.51
2019-05-28T10:08:02.380Z,33.23
2019-05-28T10:10:29.185Z,33.37
2019-05-28T10:12:56.046Z,33.74
2019-05-28T10:15:22.835Z,34.63
2019-05-28T10:17:49.447Z,34.79
2019-05-28T10:20:17.421Z,31.61
2019-05-28T10:22:44.116Z,31.74
2019-05-28T10:25:10.934Z,31.63
2019-05-28T10:27:37.707Z,27.94
2019-05-28T10:30:04.987Z,24.90
2019-05-28T10:32:31.788Z,23.73
2019-05-28T10:35:03.776Z,22.91
2019-05-28T10:37:27.261Z,23.83
2019-05-28T10:39:53.909Z,25.76
2019-05-28T10:42:20.706Z,27.45
2019-05-28T10:44:47.384Z,27.49
2019-05-28T10:47:14.191Z,28.69
2019-05-28T10:49:41.087Z,29.07
2019-05-28T10:52:08.296Z,29.28
2019-05-28T10:54:35.347Z,28.27
2019-05-28T10:57:02.034Z,24.23
2019-05-28T10:59:28.721Z,22.67
2019-05-28T11:01:55.402Z,19.81
2019-05-28T11:04:22.208Z,18.61
2019-05-28T11:06:52.199Z,17.66
2019-05-28T11:09:17.741Z,16.63
2019-05-28T11:11:44.321Z,15.19
2019-05-28T11:14:11.109Z,13.79
2019-05-28T11:16:37.819Z,16.73
2019-05-28T11:19:04.602Z,17.38
2019-05-28T11:21:31.689Z,22.01
2019-05-28T11:23:58.753Z,22.94
2019-05-28T11:26:25.756Z,24.13
2019-05-28T11:28:52.540Z,25.36
2019-05-28T11:31:19.317Z,26.48
2019-05-28T11:33:45.991Z,27.00
2019-05-28T11:36:12.692Z,28.84
2019-05-28T11:38:39.456Z,27.74
2019-05-28T11:41:06.260Z,24.65
2019-05-28T11:43:33.058Z,21.03
2019-05-28T11:45:59.618Z,20.62
2019-05-28T11:48:26.610Z,19.86
2019-05-28T11:50:53.459Z,18.68
2019-05-28T11:53:20.087Z,18.37
2019-05-28T11:55:46.769Z,19.41
2019-05-28T11:58:13.548Z,19.40
2019-05-28T12:00:40.813Z,19.01
2019-05-28T12:03:07.605Z,22.45
2019-05-28T12:05:34.384Z,23.69
2019-05-28T12:08:01.180Z,25.40
2019-05-28T12:10:27.990Z,26.99
2019-05-28T12:12:54.727Z,29.33
2019-05-28T12:15:21.622Z,29.24
2019-05-28T12:17:48.434Z,28.82
2019-05-28T12:20:17.867Z,30.62
2019-05-28T12:22:45.026Z,30.38
2019-05-28T12:25:12.663Z,31.60
2019-05-28T12:27:39.756Z,32.26
2019-05-28T12:30:07.349Z,31.53
2019-05-28T12:32:34.142Z,34.01
2019-05-28T12:35:00.814Z,35.73
2019-05-28T12:37:46.360Z,36.28
2019-05-28T12:39:56.179Z,36.28
2019-05-28T12:42:22.867Z,35.69
2019-05-28T12:45:07.976Z,35.96
2019-05-28T12:47:18.268Z,35.55
2019-05-28T12:49:45.059Z,36.86
2019-05-28T12:52:11.824Z,37.08
2019-05-28T12:54:38.505Z,36.80
2019-05-28T12:57:05.206Z,37.08
2019-05-28T12:59:31.924Z,37.11
2019-05-28T13:01:58.712Z,37.39
2019-05-28T13:04:25.496Z,38.52
2019-05-28T13:06:52.234Z,39.12
2019-05-28T13:09:18.916Z,40.02
2019-05-28T13:11:45.583Z,42.30
2019-05-28T13:14:12.390Z,46.26
2019-05-28T13:16:38.954Z,46.10
2019-05-28T13:19:05.752Z,51.51
2019-05-28T13:21:32.349Z,58.61
2019-05-28T13:23:59.021Z,54.37
2019-05-28T13:26:26.039Z,61.42
2019-05-28T13:28:52.853Z,61.09
2019-05-28T13:31:19.908Z,64.89
2019-05-28T13:33:46.597Z,65.03
2019-05-28T13:36:13.637Z,63.59
2019-05-28T13:38:42.820Z,70.20
2019-05-28T13:41:09.248Z,68.66
2019-05-28T13:43:35.848Z,64.77
2019-05-28T13:46:02.608Z,72.85
2019-05-28T13:48:29.826Z,72.05
2019-05-28T13:50:56.731Z,70.16
2019-05-28T13:53:23.510Z,78.40
2019-05-28T13:55:50.185Z,76.15
2019-05-28T13:58:16.885Z,76.25
2019-05-28T14:00:43.579Z,84.07
2019-05-28T14:03:10.910Z,85.02
2019-05-28T14:05:37.730Z,85.65
2019-05-28T14:08:04.519Z,84.85
2019-05-28T14:10:31.313Z,85.07
2019-05-28T14:12:57.950Z,88.83
2019-05-28T14:15:24.754Z,100.00
2019-05-28T14:17:51.535Z,100.00
2019-05-28T14:20:48.372Z,100.00
2019-05-28T14:23:15.525Z,100.00
2019-05-28T14:26:01.372Z,100.00
2019-05-28T14:28:56.182Z,100.00
